Flight Track Log - Related Links

Times and Time Zones

All times are in EDT time to prevent confusion due to time zone crossing. See the TAM3105 flight status page for this flight to view local times or setup timezone preferences in your user account.

Time Position Orientation Groundspeed Altitude Reporting Facility
EDT Latitude Longitude Course Direction KTS MPH feet Rate Location/Type
Fri 08:41:42 PM -23.6300 -46.6570 20° North  Level FlightAware ADS-B
Fri 08:45:14 PM -23.6350 -46.6520 138° Southeast 610 Level FlightAware ADS-B
Fri 08:46:19 PM -23.6340 -46.6510 42° Northeast 1,591 Level FlightAware ADS-B
Fri 08:46:55 PM -23.6250 -46.6570 329° Northwest 3,134 Level FlightAware ADS-B
Fri 08:47:26 PM -23.6020 -46.6750 324° Northwest 173 199 3,500 4,875 Climbing FlightAware ADS-B
Fri 08:47:43 PM -23.5980 -46.6890 287° West 193 222 3,900 1,733 Climbing FlightAware ADS-B
Fri 08:48:11 PM -23.6140 -46.7110 232° Southwest 222 255 4,800 2,509 Climbing FlightAware ADS-B
Fri 08:48:38 PM -23.6410 -46.7220 200° South 232 267 6,200 3,176 Climbing FlightAware ADS-B
Fri 08:49:02 PM -23.6670 -46.7320 199° South 240 276 7,500 2,625 Climbing FlightAware ADS-B
Fri 08:49:26 PM -23.6930 -46.7430 201° Southwest 272 313 8,300 1,950 Climbing FlightAware ADS-B
Fri 08:49:42 PM -23.7090 -46.7570 219° Southwest 283 326 8,800 2,556 Climbing FlightAware ADS-B
Fri 08:50:20 PM -23.7410 -46.8020 232° Southwest 307 353 10,600 2,175 Climbing FlightAware ADS-B
Fri 08:51:02 PM -23.7830 -46.8560 230° Southwest 355 409 11,700 2,154 Climbing FlightAware ADS-B
Fri 08:51:38 PM -23.8230 -46.9060 229° Southwest 363 418 13,400 2,550 Climbing FlightAware ADS-B
Fri 08:52:22 PM -23.8710 -46.9680 230° Southwest 379 436 15,100 2,429 Climbing FlightAware ADS-B
Fri 08:53:02 PM -23.9170 -47.0270 230° Southwest 387 445 16,800 2,538 Climbing FlightAware ADS-B
Fri 08:53:40 PM -23.9620 -47.0860 230° Southwest 396 456 18,400 2,462 Climbing FlightAware ADS-B
Fri 08:54:20 PM -24.0090 -47.1470 230° Southwest 399 459 20,000 2,074 Climbing FlightAware ADS-B
Fri 08:55:01 PM -24.0580 -47.2110 230° Southwest 414 476 21,200 2,093 Climbing FlightAware ADS-B
Fri 08:55:46 PM -24.1150 -47.2850 230° Southwest 411 473 23,000 2,138 Climbing FlightAware ADS-B
Fri 08:56:28 PM -24.1660 -47.3510 230° Southwest 418 481 24,300 1,971 Climbing FlightAware ADS-B
Fri 08:56:56 PM -24.2060 -47.3900 222° Southwest 419 482 25,300 1,853 Climbing FlightAware ADS-B
Fri 08:57:36 PM -24.2740 -47.4150 199° South 425 489 26,400 1,737 Climbing FlightAware ADS-B
Fri 08:58:12 PM -24.3500 -47.4390 196° South 430 495 27,500 1,747 Climbing FlightAware ADS-B
Fri 08:58:55 PM -24.4290 -47.4660 197° South 436 502 28,700 1,807 Climbing FlightAware ADS-B
Fri 08:59:35 PM -24.5090 -47.4920 196° South 435 501 30,000 1,421 Climbing FlightAware ADS-B
Fri 09:00:11 PM -24.5790 -47.5150 197° South 447 514 30,500 1,412 Climbing FlightAware ADS-B
Fri 09:01:00 PM -24.6740 -47.5460 197° South 420 483 32,000 1,000 Climbing FlightAware ADS-B
Fri 09:01:41 PM -24.7480 -47.5700 196° South 412 474 32,000  Level FlightAware ADS-B
Fri 09:02:25 PM -24.8290 -47.5970 197° South 422 486 32,000  Level FlightAware ADS-B
Fri 09:02:58 PM -24.8920 -47.6180 197° South 420 483 32,000  Level FlightAware ADS-B
Fri 09:03:34 PM -24.9400 -47.6330 196° South 420 483 32,000  Level FlightAware ADS-B
Fri 09:04:31 PM -25.0450 -47.6680 197° South 421 484 32,000  Level FlightAware ADS-B
Fri 09:05:11 PM -25.1220 -47.6940 197° South 422 486 32,000  Level FlightAware ADS-B
Fri 09:05:52 PM -25.1990 -47.7190 196° South 422 486 32,000  Level FlightAware ADS-B
Fri 09:06:32 PM -25.2670 -47.7420 197° South 422 486 32,000  Level FlightAware ADS-B
Fri 09:07:13 PM -25.3480 -47.7690 197° South 423 487 32,000  Level FlightAware ADS-B
Fri 09:07:59 PM -25.4340 -47.7980 197° South 422 486 32,000  Level FlightAware ADS-B
Fri 09:08:40 PM -25.5110 -47.8230 196° South 422 486 32,000  Level FlightAware ADS-B
Fri 09:09:18 PM -25.6020 -47.8540 197° South 423 487 32,000  Level FlightAware ADS-B
Fri 09:09:58 PM -25.6750 -47.8780 197° South 424 488 32,000  Level FlightAware ADS-B
Fri 09:10:37 PM -25.7530 -47.9040 197° South 424 488 32,000  Level FlightAware ADS-B
Fri 09:11:24 PM -25.8360 -47.9320 197° South 425 489 32,000  Level FlightAware ADS-B
Fri 09:12:08 PM -25.9230 -47.9620 197° South 424 488 32,000  Level FlightAware ADS-B
Fri 09:12:52 PM -26.0080 -47.9900 196° South 424 488 32,000 -429 Level FlightAware ADS-B
Fri 09:13:32 PM -26.0810 -48.0150 197° South 424 488 31,400 -988 Descending FlightAware ADS-B
Fri 09:14:17 PM -26.1670 -48.0440 197° South 422 486 30,600 -988 Descending FlightAware ADS-B
Fri 09:14:57 PM -26.2390 -48.0690 197° South 427 491 30,000 -988 Descending FlightAware ADS-B
Fri 09:15:42 PM -26.3260 -48.0980 197° South 429 494 29,200 -1,129 Descending FlightAware ADS-B
Fri 09:16:22 PM -26.4030 -48.1240 197° South 433 498 28,400 -2,100 Descending FlightAware ADS-B
Fri 09:17:02 PM -26.4780 -48.1500 197° South 436 502 26,400 -2,700 Descending FlightAware ADS-B
Fri 09:17:42 PM -26.5580 -48.1770 197° South 427 491 24,800 -2,475 Descending FlightAware ADS-B
Fri 09:18:22 PM -26.6330 -48.2010 196° South 422 486 23,100 -3,225 Descending FlightAware ADS-B
Fri 09:19:02 PM -26.7140 -48.2090 185° South 444 511 20,500 -3,237 Descending FlightAware ADS-B
Fri 09:19:38 PM -26.7860 -48.2140 184° South 436 502 19,000 -2,480 Descending FlightAware ADS-B
Fri 09:20:17 PM -26.8650 -48.2200 184° South 423 487 17,400 -2,354 Descending FlightAware ADS-B
Fri 09:20:57 PM -26.9380 -48.2250 183° South 412 474 15,900 -2,325 Descending FlightAware ADS-B
Fri 09:21:37 PM -27.0170 -48.2310 184° South 403 464 14,300 -2,400 Descending FlightAware ADS-B
Fri 09:22:22 PM -27.1000 -48.2370 184° South 391 450 12,500 -2,259 Descending FlightAware ADS-B
Fri 09:23:02 PM -27.1650 -48.2420 184° South 378 435 11,100 -1,600 Descending FlightAware ADS-B
Fri 09:23:37 PM -27.2310 -48.2470 184° South 350 403 10,500 -800 Descending FlightAware ADS-B
Fri 09:24:17 PM -27.2910 -48.2510 183° South 325 374 10,100 -655 Descending FlightAware ADS-B
Fri 09:24:32 PM -27.3120 -48.2530 185° South 307 353 9,900 -1,024 Descending FlightAware ADS-B
Fri 09:24:58 PM -27.3430 -48.2550 183° South 301 346 9,400 -1,364 Descending FlightAware ADS-B
Fri 09:25:16 PM -27.3720 -48.2580 185° South 296 341 8,900 -1,714 Descending FlightAware ADS-B
Fri 09:25:40 PM -27.4050 -48.2600 183° South 296 341 8,200 -1,556 Descending FlightAware ADS-B
Fri 09:26:10 PM -27.4460 -48.2630 184° South 291 335 7,500 -1,400 Descending FlightAware ADS-B
Fri 09:26:40 PM -27.4820 -48.2660 184° South 286 329 6,800 -1,350 Descending FlightAware ADS-B
Fri 09:26:50 PM -27.4970 -48.2670 183° South 282 325 6,600 -1,350 Descending FlightAware ADS-B
Fri 09:27:20 PM -27.5380 -48.2700 184° South 275 316 5,900 -1,286 Descending FlightAware ADS-B
Fri 09:27:32 PM -27.5520 -48.2710 184° South 273 314 5,700 -1,286 Descending FlightAware ADS-B
Fri 09:28:02 PM -27.5920 -48.2740 184° South 262 302 5,000 -1,333 Descending FlightAware ADS-B
Fri 09:28:26 PM -27.6210 -48.2760 183° South 260 299 4,500 -1,224 Descending FlightAware ADS-B
Fri 09:28:51 PM -27.6490 -48.2780 184° South 258 297 4,000 -545 Descending FlightAware ADS-B
Fri 09:29:32 PM -27.6930 -48.2820 185° South 230 265 3,900 -235 Descending FlightAware ADS-B
Fri 09:29:42 PM -27.7030 -48.2870 204° Southwest 223 257 3,800 -1,200 Descending FlightAware ADS-B
Fri 09:30:02 PM -27.7170 -48.3060 230° Southwest 224 258 3,300 -875 Descending FlightAware ADS-B
Fri 09:30:30 PM -27.7350 -48.3310 231° Southwest 213 245 3,100 -171 Descending FlightAware ADS-B
Fri 09:31:12 PM -27.7030 -48.2870 51° Northeast 164 189 3,100  Level FlightAware ADS-B
Fri 09:31:40 PM -27.7120 -48.3050 241° Southwest 164 189 3,100 -764 Level FlightAware ADS-B
Fri 09:33:02 PM -27.7250 -48.4420 264° West 143 165 1,700 -964 Descending FlightAware ADS-B
Fri 09:33:32 PM -27.7150 -48.4600 302° West 135 155 1,300 -800 Descending FlightAware ADS-B
Fri 09:33:47 PM -27.7090 -48.4710 302° West 133 153 1,100 -698 Descending FlightAware ADS-B
Fri 09:34:15 PM -27.7000 -48.4880 301° West 136 157 800 -643 Descending FlightAware ADS-B
Fri 09:34:43 PM -27.6910 -48.5040 302° West 129 148 500 -750 Descending FlightAware ADS-B
Fri 09:35:11 PM -27.6820 -48.5210 301° West 122 140 100 -857 Descending FlightAware ADS-B
Fri 09:35:38 PM -27.6740 -48.5350 303° West 124 143 -222 Descending FlightAware ADS-B
Fri 09:36:07 PM -27.6680 -48.5460 302° West 56 64  Level FlightAware ADS-B
Fri 09:36:37 PM -27.6660 -48.5510 294° West 44 51  Level FlightAware ADS-B
Fri 09:39:00 PM -27.6705 -48.5472 143° Southeast  Level Estimated
Fri 09:40:00 PM -27.6705 -48.5472 318° Northwest  Level Estimated
Fri 09:41:00 PM -27.6705 -48.5472 318° Northwest  Level Estimated
Fri 09:42:00 PM -27.6705 -48.5472 318° Northwest  Level Estimated
Fri 09:43:00 PM -27.6705 -48.5472 318° Northwest  Level Estimated
Fri 09:44:00 PM -27.6705 -48.5472 318° Northwest  Level Estimated
Fri 09:45:00 PM -27.6705 -48.5472 318° Northwest  Level Estimated
Fri 09:46:00 PM -27.6705 -48.5472 318° Northwest  Level Estimated
Fri 09:47:00 PM -27.6705 -48.5472 318° Northwest  Level Estimated
Fri 09:48:00 PM -27.6705 -48.5472 318° Northwest  Level Estimated
Fri 09:49:00 PM -27.6705 -48.5472 318° Northwest  Level Estimated
Fri 09:50:00 PM -27.6705 -48.5472 318° Northwest  Level Estimated
Fri 09:51:00 PM -27.6705 -48.5472 318° Northwest  Level Estimated
Fri 09:52:00 PM -27.6705 -48.5472 318° Northwest  Level Estimated
Fri 09:53:00 PM -27.6705 -48.5472 318° Northwest  Level Estimated
Fri 09:54:00 PM -27.6705 -48.5472 318° Northwest  Level Estimated
Fri 09:55:00 PM -27.6705 -48.5472 318° Northwest  Level Estimated
Fri 09:56:00 PM -27.6705 -48.5472 318° Northwest  Level Estimated
Fri 09:57:00 PM -27.6705 -48.5472 318° Northwest  Level Estimated
Fri 09:58:00 PM -27.6705 -48.5472 318° Northwest  Level Estimated
Fri 09:59:00 PM -27.6705 -48.5472 318° Northwest  Level Estimated

Login

Don't have an account? Register now (free) for customized features, flight alerts, and more!